Latest Weather Observations for Mount Buller

IDV60801

Issued at 3:35 pm EST Sunday 20 April 2014 (issued every 30 minutes, with the page automatically refreshed every 10 minutes)

About weather observations | Map of weather stations | Latest weather observations for VIC | Other Formats
Station Details ID: 083024 Name: MOUNT BULLER Lat: -37.15 Lon: 146.44 Height: 1707.0 m
Data from the previous 72 hours. | See also: Recent months at Mount Buller
Date/Time
EST
Temp
°C
App
Temp
°C
Dew
Point
Rel
Hum
%
Delta-T
°C
Wind Press
QNH
hPa
Press
MSL
hPa
Rain
since 9 am
mm
Dir
 
Spd
km/h
Gust
km/h
Spd
kts
Gust
kts
20/03:30pm 0.3 -5.6 -0.7 93 0.4 W 20 26 11 14 - - 0.0
20/03:00pm 0.6 -5.3 -0.7 91 0.5 W 20 33 11 18 - - 0.0
20/02:30pm 0.8 -5.1 -1.0 88 0.7 W 20 30 11 16 - - 0.0
20/02:00pm 0.6 -6.4 -0.7 91 0.5 W 26 37 14 20 - - 0.0
20/01:30pm 0.6 -6.4 -0.5 92 0.4 W 26 35 14 19 - - 0.0
20/01:00pm 0.1 -6.6 -1.0 92 0.4 W 24 35 13 19 - - 0.0
20/12:30pm 0.0 -5.7 -0.7 95 0.3 W 19 28 10 15 - - 0.0
20/12:00pm -0.2 -6.1 -0.8 96 0.2 W 20 33 11 18 - - 0.0
20/11:30am -0.1 -5.9 -0.4 98 0.1 W 20 33 11 18 - - 0.0
20/11:00am -0.1 -5.4 -0.5 97 0.2 W 17 28 9 15 - - 0.0
20/10:30am 0.5 -4.7 0.1 97 0.2 WNW 17 32 9 17 - - 0.0
20/10:00am -0.3 -6.2 -0.6 98 0.1 WNW 20 30 11 16 - - 0.0
20/09:30am -0.1 -5.8 -0.4 98 0.1 WNW 19 30 10 16 - - 0.0
20/09:00am -0.4 -6.1 -0.5 99 0.0 WNW 19 30 10 16 - - 0.0
20/08:30am -0.5 -6.2 -0.6 99 0.0 WNW 19 26 10 14 - - 0.0
20/08:00am -0.3 -5.2 -0.4 99 0.0 WNW 15 24 8 13 - - 0.0
20/07:30am -0.4 -4.9 -0.5 99 0.0 WNW 13 22 7 12 - - 0.0
20/07:00am -0.3 -6.1 -0.4 99 0.0 NW 20 28 11 15 - - 0.0
20/06:30am 0.1 -5.7 0.0 99 0.0 NNW 20 32 11 17 - - 0.0
20/06:00am 0.4 -6.5 0.3 99 0.0 NNW 26 37 14 20 - - 0.0
20/05:30am 0.5 -6.7 0.4 99 0.0 NNW 28 33 15 18 - - 0.0
20/05:00am 0.7 -6.1 0.6 99 0.0 NNW 26 33 14 18 - - 0.0
20/04:30am 0.7 -6.1 0.6 99 0.0 NNW 26 32 14 17 - - 0.0
20/04:00am 0.6 -6.2 0.5 99 0.0 NNW 26 33 14 18 - - 0.0
20/03:30am 0.9 -6.3 0.8 99 0.0 NNW 28 35 15 19 - - 0.0
20/03:00am 1.1 -6.8 1.0 99 0.0 N 32 39 17 21 - - 0.0
20/02:30am 1.2 -5.6 1.1 99 0.0 N 26 32 14 17 - - 0.0
20/02:00am 1.0 -5.8 0.7 98 0.1 N 26 37 14 20 - - 0.0
20/01:30am 1.3 -5.2 0.6 95 0.3 N 24 35 13 19 - - 0.0
20/01:00am 1.3 -4.7 1.2 99 0.0 N 22 28 12 15 - - 0.0
20/12:30am 1.0 -4.6 0.9 99 0.0 N 20 28 11 15 - - 0.0
20/12:00am 0.5 -5.0 0.4 99 0.0 N 19 22 10 12 - - 0.0
 
Date/Time
EST
Temp
°C
App
Temp
°C
Dew
Point
Rel
Hum
%
Delta-T
°C
Wind Press
QNH
hPa
Press
MSL
hPa
Rain
since 9 am
mm
Dir
 
Spd
km/h
Gust
km/h
Spd
kts
Gust
kts
19/11:30pm 0.6 -4.6 0.2 97 0.2 N 17 20 9 11 - - 0.0
19/11:00pm 0.6 -4.2 0.0 96 0.2 N 15 19 8 10 - - 0.0
19/10:30pm 0.7 -4.1 0.0 95 0.3 N 15 19 8 10 - - 0.0
19/10:00pm 0.5 -4.4 -0.4 94 0.4 N 15 17 8 9 - - 0.0
19/09:30pm 0.6 -3.8 0.2 97 0.2 N 13 15 7 8 - - 0.0
19/09:00pm 1.1 -2.9 0.2 94 0.4 NNE 11 13 6 7 - - 0.0
19/08:30pm 0.6 -3.2 -0.5 92 0.4 NE 9 11 5 6 - - 0.0
19/08:00pm 1.5 -1.8 0.0 90 0.6 E 7 11 4 6 - - 0.0
19/07:30pm 0.4 -2.7 0.0 97 0.2 SSE 6 9 3 5 - - 0.0
19/07:00pm 0.0 -4.1 -0.3 98 0.1 S 11 13 6 7 - - 0.0
19/06:30pm 0.3 -4.2 0.0 98 0.1 S 13 15 7 8 - - 0.0
19/06:00pm 0.3 -3.8 -0.4 95 0.3 S 11 13 6 7 - - 0.0
19/05:30pm 1.2 -3.2 0.2 93 0.4 S 13 17 7 9 - - 0.0
19/05:00pm 2.2 -2.1 1.0 92 0.5 S 13 17 7 9 - - 0.0
19/04:30pm 3.0 -0.5 1.4 89 0.7 S 9 15 5 8 - - 0.0
19/04:00pm 3.6 -0.2 1.6 87 0.9 S 11 17 6 9 - - 0.0
19/03:30pm 2.8 -1.0 1.5 91 0.6 SSW 11 17 6 9 - - 0.0
19/03:00pm 3.2 -0.3 1.1 86 0.9 S 9 15 5 8 - - 0.0
19/02:30pm 3.3 -0.6 0.9 84 1.0 S 11 19 6 10 - - 0.0
19/02:00pm 3.0 -0.7 0.2 82 1.2 S 9 13 5 7 - - 0.0
19/01:30pm 3.0 -1.0 0.6 84 1.0 SSE 11 17 6 9 - - 0.0
19/01:00pm 3.5 0.1 1.9 89 0.7 S 9 15 5 8 - - 0.0
19/12:30pm 2.5 -1.0 1.2 91 0.6 SSE 9 17 5 9 - - 0.0
19/12:00pm 2.0 -1.6 0.4 89 0.7 SW 9 15 5 8 - - 0.0
19/11:30am 2.3 -1.2 1.1 92 0.5 S 9 15 5 8 - - 0.0
19/11:00am 2.5 -2.6 1.0 90 0.6 S 17 28 9 15 - - 0.0
19/10:30am 2.1 -4.6 1.2 94 0.4 S 26 39 14 21 - - 0.0
19/10:00am 0.9 -5.2 0.5 97 0.2 S 22 28 12 15 - - 0.0
19/09:30am 0.5 -7.1 0.4 99 0.0 S 30 37 16 20 - - 0.0
19/09:00am -0.2 -8.3 -0.3 99 0.0 SSW 32 43 17 23 - - 5.8
19/08:30am -0.4 -7.4 -0.5 99 0.0 S 26 35 14 19 - - 5.8
19/08:00am -0.8 -9.0 -0.9 99 0.0 S 32 39 17 21 - - 5.8
19/07:30am -1.0 -8.5 -1.1 99 0.0 S 28 37 15 20 - - 5.8
19/07:00am -1.3 -9.2 -1.4 99 0.0 S 30 39 16 21 - - 5.8
19/06:30am -1.1 -9.5 -1.2 99 0.0 S 33 43 18 23 - - 5.8
19/06:00am -1.1 -9.5 -1.2 99 0.0 S 33 44 18 24 - - 5.8
19/05:30am -0.8 -9.6 -0.9 99 0.0 S 35 50 19 27 - - 5.8
19/05:00am -1.0 -10.2 -1.1 99 0.0 S 37 48 20 26 - - 5.8
19/04:30am -0.5 -9.2 -0.6 99 0.0 S 35 48 19 26 - - 5.8
19/04:00am -0.2 -9.6 -0.3 99 0.0 S 39 52 21 28 - - 5.8
19/03:30am -0.2 -9.3 -0.3 99 0.0 S 37 46 20 25 - - 5.8
19/03:00am -0.2 -9.3 -0.3 99 0.0 S 37 48 20 26 - - 5.8
19/02:30am -0.2 -9.3 -0.3 99 0.0 S 37 52 20 28 - - 5.8
19/02:00am -0.3 -9.8 -0.4 99 0.0 S 39 54 21 29 - - 5.8
19/01:34am -0.7 -9.8 -0.8 99 0.0 S 37 57 20 31 - - 5.8
19/01:30am -0.7 -9.8 -0.8 99 0.0 S 37 48 20 26 - - 5.8
19/01:00am -0.7 -9.4 -0.8 99 0.0 S 35 46 19 25 - - 5.8
19/12:30am -0.6 -9.3 -0.7 99 0.0 S 35 44 19 24 - - 5.8
19/12:00am -0.7 -9.8 -0.8 99 0.0 S 37 46 20 25 - - 5.8
 
Date/Time
EST
Temp
°C
App
Temp
°C
Dew
Point
Rel
Hum
%
Delta-T
°C
Wind Press
QNH
hPa
Press
MSL
hPa
Rain
since 9 am
mm
Dir
 
Spd
km/h
Gust
km/h
Spd
kts
Gust
kts
18/11:30pm -0.6 -9.7 -0.9 98 0.1 S 37 48 20 26 - - 5.8
18/11:00pm -0.4 -9.9 -0.7 98 0.1 S 39 57 21 31 - - 5.8
18/10:58pm -0.4 -9.9 -0.7 98 0.1 SSW 39 57 21 31 - - 5.8
18/10:30pm -0.4 -9.9 -0.8 97 0.1 S 39 52 21 28 - - 5.8
18/10:00pm -0.3 -9.8 -0.6 98 0.1 SSW 39 54 21 29 - - 5.8
18/09:30pm -0.3 -9.4 -0.4 99 0.0 S 37 56 20 30 - - 5.8
18/09:29pm -0.3 -9.4 -0.4 99 0.0 S 37 56 20 30 - - 5.8
18/09:00pm -0.4 -9.9 -0.7 98 0.1 SSW 39 52 21 28 - - 5.8
18/08:30pm -0.5 -11.0 -0.8 98 0.1 S 44 63 24 34 - - 5.8
18/08:23pm -0.4 -10.6 -0.5 99 0.0 S 43 63 23 34 - - 5.8
18/08:00pm -0.4 -9.5 -0.5 99 0.0 SSW 37 48 20 26 - - 5.8
18/07:30pm 0.2 -8.4 0.2 100 0.0 SSW 35 57 19 31 - - 5.8
18/07:02pm 0.7 -7.8 0.7 100 0.0 SSW 35 54 19 29 - - 5.8
18/07:00pm 0.7 -7.8 0.7 100 0.0 SSW 35 46 19 25 - - 5.8
18/06:30pm 1.0 -7.1 1.0 100 0.0 SSW 33 43 18 23 - - 5.8
18/06:00pm 1.0 -5.0 1.0 100 0.0 S 22 33 12 18 - - 5.8
18/05:30pm 1.7 -5.0 1.7 100 0.0 SSW 26 39 14 21 - - 5.8
18/05:00pm 2.8 -2.9 2.8 100 0.0 SSW 22 41 12 22 - - 5.8
18/04:30pm 3.5 -1.7 3.5 100 0.0 SSW 20 37 11 20 - - 5.8
18/04:00pm 4.2 -1.3 4.2 100 0.0 SSW 22 39 12 21 - - 5.8
18/03:30pm 4.3 -1.9 4.3 100 0.0 SW 26 43 14 23 - - 5.8
18/03:11pm 4.1 -2.5 4.1 100 0.0 SW 28 46 15 25 - - 5.2
18/03:00pm 4.8 -0.9 4.8 100 0.0 SW 24 41 13 22 - - 5.2
18/02:30pm 4.8 -1.3 4.8 100 0.0 WSW 26 48 14 26 - - 5.2
18/02:00pm 5.4 -1.0 5.4 100 0.0 WNW 28 41 15 22 - - 1.4
18/01:30pm 5.3 1.8 5.3 100 0.0 NW 13 32 7 17 - - 0.4
18/01:00pm 5.3 -0.7 5.3 100 0.0 W 26 46 14 25 - - 0.2
18/12:30pm 5.4 -1.7 5.4 100 0.0 W 32 56 17 30 - - 0.0
18/12:07pm 5.3 -1.1 5.2 99 0.0 WNW 28 52 15 28 - - 0.0
18/12:00pm 5.3 0.6 5.2 99 0.0 WNW 19 33 10 18 - - 0.0
18/11:49am 5.1 -1.3 5.0 99 0.0 WNW 28 46 15 25 - - 0.0
18/11:30am 5.1 0.2 5.0 99 0.0 WNW 20 43 11 23 - - 0.0
18/11:17am 5.1 -1.3 5.0 99 0.0 WNW 28 52 15 28 - - 0.0
18/11:00am 5.1 -0.2 5.0 99 0.0 WNW 22 43 12 23 - - 0.0
18/10:46am 5.0 -1.5 4.7 98 0.1 W 28 39 15 21 - - 0.0
18/10:30am 5.2 2.0 4.9 98 0.1 NNW 11 20 6 11 - - 0.0
18/10:00am 5.3 1.2 4.6 95 0.3 WNW 15 32 8 17 - - 0.0
18/09:30am 5.6 -0.4 5.2 97 0.2 WNW 26 52 14 28 - - 0.0
18/09:00am 4.6 -2.0 4.2 97 0.2 WNW 28 46 15 25 - - 0.0
18/08:30am 4.5 -2.1 4.1 97 0.2 WNW 28 48 15 26 - - 0.0
18/08:04am 4.5 -2.1 4.1 97 0.2 WNW 28 50 15 27 - - 0.0
18/08:00am 4.6 -1.2 4.2 97 0.2 WNW 24 50 13 27 - - 0.0
18/07:30am 4.4 0.6 4.1 98 0.1 WNW 13 30 7 16 - - 0.0
18/07:00am 4.4 -1.0 4.3 99 0.0 NW 22 43 12 23 - - 0.0
18/06:30am 4.5 -1.3 4.4 99 0.0 NW 24 39 13 21 - - 0.0
18/06:01am 4.7 -1.8 4.6 99 0.0 NW 28 46 15 25 - - 0.0
18/06:00am 4.5 -1.7 4.4 99 0.0 NW 26 46 14 25 - - 0.0
18/05:45am 4.8 -2.1 4.7 99 0.0 NW 30 52 16 28 - - 0.0
18/05:30am 4.9 -2.0 4.8 99 0.0 NW 30 44 16 24 - - 0.0
18/05:04am 5.0 -1.5 4.9 99 0.0 NW 28 46 15 25 - - 0.0
18/05:00am 5.0 -1.1 4.9 99 0.0 NW 26 43 14 23 - - 0.0
18/04:39am 5.0 -1.5 4.9 99 0.0 NW 28 48 15 26 - - 0.0
18/04:30am 5.0 -1.1 4.9 99 0.0 NW 26 41 14 22 - - 0.0
18/04:19am 5.1 -2.3 5.0 99 0.0 NW 33 54 18 29 - - 0.0
18/04:00am 5.1 -1.8 4.8 98 0.1 NW 30 46 16 25 - - 0.0
18/03:30am 5.2 -1.6 4.9 98 0.1 NW 30 50 16 27 - - 0.0
18/03:28am 5.2 -1.6 4.9 98 0.1 NW 30 50 16 27 - - 0.0
18/03:00am 5.2 -0.9 4.9 98 0.1 NW 26 44 14 24 - - 0.0
18/02:30am 5.3 0.4 5.0 98 0.1 NW 20 44 11 24 - - 0.0
18/02:00am 5.3 2.1 5.0 98 0.1 NW 11 22 6 12 - - 0.0
18/01:30am 5.3 1.3 4.9 97 0.2 WNW 15 22 8 12 - - 0.0
18/01:00am 5.1 0.3 4.5 96 0.3 WNW 19 30 10 16 - - 0.0
18/12:30am 5.3 -0.6 3.8 90 0.7 WNW 24 35 13 19 - - 0.0
18/12:00am 5.3 0.2 4.3 93 0.5 WNW 20 28 11 15 - - 0.0
 
Date/Time
EST
Temp
°C
App
Temp
°C
Dew
Point
Rel
Hum
%
Delta-T
°C
Wind Press
QNH
hPa
Press
MSL
hPa
Rain
since 9 am
mm
Dir
 
Spd
km/h
Gust
km/h
Spd
kts
Gust
kts
17/11:30pm 5.4 0.1 5.1 98 0.1 WNW 22 30 12 16 - - 0.0
17/11:00pm 5.4 0.5 5.3 99 0.0 NW 20 32 11 17 - - 0.0
17/10:30pm 5.1 0.4 5.0 99 0.0 NW 19 28 10 15 - - 0.0
17/10:00pm 5.2 0.9 5.1 99 0.0 NW 17 22 9 12 - - 0.0
17/09:30pm 4.8 1.4 4.1 95 0.3 WNW 11 15 6 8 - - 0.0
17/09:00pm 5.2 2.5 3.9 91 0.6 WNW 7 9 4 5 - - 0.0
17/08:30pm 5.3 2.9 4.3 93 0.5 W 6 9 3 5 - - 0.0
17/08:00pm 5.3 2.7 4.4 94 0.4 WSW 7 9 4 5 - - 0.0
17/07:30pm 5.3 2.0 4.6 95 0.3 W 11 13 6 7 - - 0.0
17/07:00pm 5.8 3.3 4.6 92 0.6 WSW 7 9 4 5 - - 0.0
17/06:30pm 5.5 3.0 4.5 93 0.5 WSW 7 9 4 5 - - 0.0
17/06:00pm 5.7 4.6 5.3 97 0.2 CALM 0 2 0 1 - - 0.0
17/05:30pm 5.2 2.7 4.5 95 0.3 W 7 9 4 5 - - 0.0
17/05:00pm 6.0 3.2 5.0 93 0.5 W 9 11 5 6 - - 0.0
17/04:30pm 6.5 3.7 5.0 90 0.7 W 9 11 5 6 - - 0.0
17/04:00pm 8.6 6.5 5.9 83 1.4 W 6 9 3 5 - - 0.0

Other Formats:

Comma delimited format used in spreadsheet applications
http://www.bom.gov.au/fwo/IDV60801/IDV60801.94894.axf

JavaScript Object Notation format (JSON) in row-major order
http://www.bom.gov.au/fwo/IDV60801/IDV60801.94894.json